sensor_id;sensor_type;location;lat;lon;timestamp;P1;durP1;ratioP1;P2;durP2;ratioP2
12635;SDS011;6383;50.830;7.210;2022-10-22T00:00:36;20.38;;;8.02;;
12635;SDS011;6383;50.830;7.210;2022-10-22T00:03:05;19.20;;;8.05;;
12635;SDS011;6383;50.830;7.210;2022-10-22T00:05:34;25.60;;;9.18;;
12635;SDS011;6383;50.830;7.210;2022-10-22T00:08:05;21.13;;;8.02;;
12635;SDS011;6383;50.830;7.210;2022-10-22T00:10:35;28.65;;;10.38;;
12635;SDS011;6383;50.830;7.210;2022-10-22T00:13:04;23.77;;;8.68;;
12635;SDS011;6383;50.830;7.210;2022-10-22T00:15:32;22.40;;;8.40;;
12635;SDS011;6383;50.830;7.210;2022-10-22T00:18:00;24.38;;;7.65;;
12635;SDS011;6383;50.830;7.210;2022-10-22T00:20:27;18.92;;;7.43;;
12635;SDS011;6383;50.830;7.210;2022-10-22T00:22:56;25.23;;;8.82;;
12635;SDS011;6383;50.830;7.210;2022-10-22T00:25:27;23.60;;;8.35;;
12635;SDS011;6383;50.830;7.210;2022-10-22T00:27:56;22.50;;;8.80;;
12635;SDS011;6383;50.830;7.210;2022-10-22T00:30:23;22.52;;;7.50;;
12635;SDS011;6383;50.830;7.210;2022-10-22T00:32:51;33.50;;;8.27;;
12635;SDS011;6383;50.830;7.210;2022-10-22T00:35:19;26.02;;;7.00;;
12635;SDS011;6383;50.830;7.210;2022-10-22T00:37:48;24.17;;;7.85;;
12635;SDS011;6383;50.830;7.210;2022-10-22T00:40:18;30.15;;;8.00;;
12635;SDS011;6383;50.830;7.210;2022-10-22T00:42:47;20.15;;;6.60;;
12635;SDS011;6383;50.830;7.210;2022-10-22T00:45:17;17.50;;;7.20;;
12635;SDS011;6383;50.830;7.210;2022-10-22T00:47:51;14.00;;;6.43;;
12635;SDS011;6383;50.830;7.210;2022-10-22T00:50:24;15.48;;;6.47;;
12635;SDS011;6383;50.830;7.210;2022-10-22T00:52:56;23.85;;;7.68;;
12635;SDS011;6383;50.830;7.210;2022-10-22T00:55:26;14.25;;;7.32;;
12635;SDS011;6383;50.830;7.210;2022-10-22T00:57:56;15.88;;;6.18;;
12635;SDS011;6383;50.830;7.210;2022-10-22T01:00:25;18.90;;;6.05;;
12635;SDS011;6383;50.830;7.210;2022-10-22T01:02:54;15.07;;;5.57;;
12635;SDS011;6383;50.830;7.210;2022-10-22T01:05:25;19.05;;;6.20;;
12635;SDS011;6383;50.830;7.210;2022-10-22T01:07:56;19.02;;;5.97;;
12635;SDS011;6383;50.830;7.210;2022-10-22T01:10:29;16.13;;;6.13;;
12635;SDS011;6383;50.830;7.210;2022-10-22T01:13:11;15.77;;;5.80;;
12635;SDS011;6383;50.830;7.210;2022-10-22T01:15:51;16.80;;;6.10;;
12635;SDS011;6383;50.830;7.210;2022-10-22T01:18:28;19.75;;;6.70;;
12635;SDS011;6383;50.830;7.210;2022-10-22T01:21:06;19.38;;;5.82;;
12635;SDS011;6383;50.830;7.210;2022-10-22T01:26:47;13.48;;;5.18;;
12635;SDS011;6383;50.830;7.210;2022-10-22T01:29:29;15.23;;;4.68;;
12635;SDS011;6383;50.830;7.210;2022-10-22T01:32:03;14.45;;;3.95;;
12635;SDS011;6383;50.830;7.210;2022-10-22T01:34:39;13.30;;;5.10;;
12635;SDS011;6383;50.830;7.210;2022-10-22T01:37:11;19.60;;;4.85;;
12635;SDS011;6383;50.830;7.210;2022-10-22T01:39:42;11.27;;;4.30;;
12635;SDS011;6383;50.830;7.210;2022-10-22T01:42:13;10.13;;;3.80;;
12635;SDS011;6383;50.830;7.210;2022-10-22T01:44:43;9.35;;;4.32;;
12635;SDS011;6383;50.830;7.210;2022-10-22T01:47:13;15.15;;;4.70;;
12635;SDS011;6383;50.830;7.210;2022-10-22T01:52:52;23.67;;;5.38;;
12635;SDS011;6383;50.830;7.210;2022-10-22T01:55:33;19.23;;;5.30;;
12635;SDS011;6383;50.830;7.210;2022-10-22T01:58:14;18.50;;;4.85;;
12635;SDS011;6383;50.830;7.210;2022-10-22T02:00:55;24.27;;;5.15;;
12635;SDS011;6383;50.830;7.210;2022-10-22T02:03:32;17.73;;;4.50;;
12635;SDS011;6383;50.830;7.210;2022-10-22T02:06:07;23.95;;;5.05;;
12635;SDS011;6383;50.830;7.210;2022-10-22T02:08:40;15.75;;;4.32;;
12635;SDS011;6383;50.830;7.210;2022-10-22T02:11:10;18.77;;;4.70;;
12635;SDS011;6383;50.830;7.210;2022-10-22T02:13:40;18.13;;;4.75;;
12635;SDS011;6383;50.830;7.210;2022-10-22T02:16:15;20.88;;;6.90;;
12635;SDS011;6383;50.830;7.210;2022-10-22T02:18:46;15.40;;;4.90;;
12635;SDS011;6383;50.830;7.210;2022-10-22T02:21:19;12.38;;;4.65;;
12635;SDS011;6383;50.830;7.210;2022-10-22T02:23:46;8.38;;;4.65;;
12635;SDS011;6383;50.830;7.210;2022-10-22T02:26:16;21.45;;;5.00;;
12635;SDS011;6383;50.830;7.210;2022-10-22T02:28:53;18.80;;;5.38;;
12635;SDS011;6383;50.830;7.210;2022-10-22T02:31:29;18.58;;;5.05;;
12635;SDS011;6383;50.830;7.210;2022-10-22T02:34:02;17.95;;;4.32;;
12635;SDS011;6383;50.830;7.210;2022-10-22T02:36:35;10.13;;;4.38;;
12635;SDS011;6383;50.830;7.210;2022-10-22T02:39:04;18.83;;;4.63;;
12635;SDS011;6383;50.830;7.210;2022-10-22T02:41:34;9.20;;;4.03;;
12635;SDS011;6383;50.830;7.210;2022-10-22T02:44:06;21.77;;;4.78;;
12635;SDS011;6383;50.830;7.210;2022-10-22T02:46:38;16.35;;;4.38;;
12635;SDS011;6383;50.830;7.210;2022-10-22T02:49:07;8.20;;;4.60;;
12635;SDS011;6383;50.830;7.210;2022-10-22T02:51:36;13.48;;;4.35;;
12635;SDS011;6383;50.830;7.210;2022-10-22T02:54:03;22.63;;;5.13;;
12635;SDS011;6383;50.830;7.210;2022-10-22T02:56:32;16.50;;;4.10;;
12635;SDS011;6383;50.830;7.210;2022-10-22T02:59:02;7.32;;;4.13;;
12635;SDS011;6383;50.830;7.210;2022-10-22T03:01:30;9.02;;;4.28;;
12635;SDS011;6383;50.830;7.210;2022-10-22T03:03:59;8.93;;;4.10;;
12635;SDS011;6383;50.830;7.210;2022-10-22T03:06:27;16.95;;;4.40;;
12635;SDS011;6383;50.830;7.210;2022-10-22T03:08:56;12.15;;;5.03;;
12635;SDS011;6383;50.830;7.210;2022-10-22T03:11:25;16.15;;;4.47;;
12635;SDS011;6383;50.830;7.210;2022-10-22T03:13:53;14.48;;;4.38;;
12635;SDS011;6383;50.830;7.210;2022-10-22T03:16:20;11.77;;;3.72;;
12635;SDS011;6383;50.830;7.210;2022-10-22T03:18:49;15.38;;;4.70;;
12635;SDS011;6383;50.830;7.210;2022-10-22T03:21:22;21.95;;;4.80;;
12635;SDS011;6383;50.830;7.210;2022-10-22T03:23:57;17.65;;;4.85;;
12635;SDS011;6383;50.830;7.210;2022-10-22T03:26:28;11.27;;;3.97;;
12635;SDS011;6383;50.830;7.210;2022-10-22T03:28:56;13.88;;;4.40;;
12635;SDS011;6383;50.830;7.210;2022-10-22T03:31:27;10.98;;;3.63;;
12635;SDS011;6383;50.830;7.210;2022-10-22T03:33:56;23.40;;;4.57;;
12635;SDS011;6383;50.830;7.210;2022-10-22T03:36:26;20.55;;;6.43;;
12635;SDS011;6383;50.830;7.210;2022-10-22T03:38:54;15.43;;;4.25;;
12635;SDS011;6383;50.830;7.210;2022-10-22T03:41:23;10.73;;;4.57;;
12635;SDS011;6383;50.830;7.210;2022-10-22T03:43:50;14.00;;;4.57;;
12635;SDS011;6383;50.830;7.210;2022-10-22T03:46:19;15.48;;;4.45;;
12635;SDS011;6383;50.830;7.210;2022-10-22T03:48:48;16.00;;;3.97;;
12635;SDS011;6383;50.830;7.210;2022-10-22T03:51:16;12.48;;;4.00;;
12635;SDS011;6383;50.830;7.210;2022-10-22T03:53:45;15.32;;;4.45;;
12635;SDS011;6383;50.830;7.210;2022-10-22T03:56:14;9.95;;;5.15;;
12635;SDS011;6383;50.830;7.210;2022-10-22T03:58:43;12.45;;;4.50;;
12635;SDS011;6383;50.830;7.210;2022-10-22T04:01:11;9.82;;;4.20;;
12635;SDS011;6383;50.830;7.210;2022-10-22T04:03:41;7.47;;;3.97;;
12635;SDS011;6383;50.830;7.210;2022-10-22T04:06:10;17.35;;;4.80;;
12635;SDS011;6383;50.830;7.210;2022-10-22T04:08:41;6.53;;;4.25;;
12635;SDS011;6383;50.830;7.210;2022-10-22T04:11:13;14.38;;;4.47;;
12635;SDS011;6383;50.830;7.210;2022-10-22T04:13:42;9.07;;;4.68;;
12635;SDS011;6383;50.830;7.210;2022-10-22T04:16:12;11.98;;;4.25;;
12635;SDS011;6383;50.830;7.210;2022-10-22T04:18:42;11.88;;;4.80;;
12635;SDS011;6383;50.830;7.210;2022-10-22T04:21:12;10.32;;;6.05;;
12635;SDS011;6383;50.830;7.210;2022-10-22T04:23:43;19.88;;;6.75;;
12635;SDS011;6383;50.830;7.210;2022-10-22T04:26:14;13.18;;;5.97;;
12635;SDS011;6383;50.830;7.210;2022-10-22T04:28:43;16.05;;;7.35;;
12635;SDS011;6383;50.830;7.210;2022-10-22T04:31:13;15.40;;;7.35;;
12635;SDS011;6383;50.830;7.210;2022-10-22T04:33:43;11.18;;;6.97;;
12635;SDS011;6383;50.830;7.210;2022-10-22T04:36:13;22.13;;;9.07;;
12635;SDS011;6383;50.830;7.210;2022-10-22T04:38:44;18.20;;;8.77;;
12635;SDS011;6383;50.830;7.210;2022-10-22T04:41:15;18.35;;;9.13;;
12635;SDS011;6383;50.830;7.210;2022-10-22T04:43:45;17.48;;;8.68;;
12635;SDS011;6383;50.830;7.210;2022-10-22T04:46:14;14.82;;;9.70;;
12635;SDS011;6383;50.830;7.210;2022-10-22T04:48:45;13.05;;;9.93;;
12635;SDS011;6383;50.830;7.210;2022-10-22T04:51:15;20.70;;;12.15;;
12635;SDS011;6383;50.830;7.210;2022-10-22T04:53:46;20.63;;;13.68;;
12635;SDS011;6383;50.830;7.210;2022-10-22T04:56:17;20.70;;;10.93;;
12635;SDS011;6383;50.830;7.210;2022-10-22T04:58:46;23.10;;;12.32;;
12635;SDS011;6383;50.830;7.210;2022-10-22T05:01:16;11.05;;;9.75;;
12635;SDS011;6383;50.830;7.210;2022-10-22T05:03:44;18.50;;;12.57;;
12635;SDS011;6383;50.830;7.210;2022-10-22T05:06:14;17.83;;;10.52;;
12635;SDS011;6383;50.830;7.210;2022-10-22T05:08:42;28.85;;;11.88;;
12635;SDS011;6383;50.830;7.210;2022-10-22T05:11:11;19.75;;;16.80;;
12635;SDS011;6383;50.830;7.210;2022-10-22T05:13:41;28.48;;;12.27;;
12635;SDS011;6383;50.830;7.210;2022-10-22T05:16:10;21.02;;;13.02;;
12635;SDS011;6383;50.830;7.210;2022-10-22T05:18:38;20.75;;;14.32;;
12635;SDS011;6383;50.830;7.210;2022-10-22T05:21:09;22.52;;;11.25;;
12635;SDS011;6383;50.830;7.210;2022-10-22T05:23:39;11.93;;;9.40;;
12635;SDS011;6383;50.830;7.210;2022-10-22T05:26:10;17.35;;;11.02;;
12635;SDS011;6383;50.830;7.210;2022-10-22T05:28:41;14.93;;;10.02;;
12635;SDS011;6383;50.830;7.210;2022-10-22T05:31:11;19.17;;;11.55;;
12635;SDS011;6383;50.830;7.210;2022-10-22T05:33:41;16.27;;;10.73;;
12635;SDS011;6383;50.830;7.210;2022-10-22T05:36:12;19.20;;;10.15;;
12635;SDS011;6383;50.830;7.210;2022-10-22T05:38:45;23.08;;;9.90;;
12635;SDS011;6383;50.830;7.210;2022-10-22T05:41:14;8.40;;;7.32;;
12635;SDS011;6383;50.830;7.210;2022-10-22T05:43:46;16.48;;;8.00;;
12635;SDS011;6383;50.830;7.210;2022-10-22T05:46:16;12.60;;;8.13;;
12635;SDS011;6383;50.830;7.210;2022-10-22T05:48:47;8.50;;;7.40;;
12635;SDS011;6383;50.830;7.210;2022-10-22T05:51:18;11.05;;;7.00;;
12635;SDS011;6383;50.830;7.210;2022-10-22T05:53:49;14.07;;;6.13;;
12635;SDS011;6383;50.830;7.210;2022-10-22T05:56:19;11.15;;;6.13;;
12635;SDS011;6383;50.830;7.210;2022-10-22T05:58:49;14.50;;;6.18;;
12635;SDS011;6383;50.830;7.210;2022-10-22T06:01:18;13.57;;;6.55;;
12635;SDS011;6383;50.830;7.210;2022-10-22T06:03:48;15.15;;;6.30;;
12635;SDS011;6383;50.830;7.210;2022-10-22T06:06:21;18.27;;;7.22;;
12635;SDS011;6383;50.830;7.210;2022-10-22T06:08:55;12.85;;;6.80;;
12635;SDS011;6383;50.830;7.210;2022-10-22T06:11:26;10.07;;;6.38;;
12635;SDS011;6383;50.830;7.210;2022-10-22T06:13:57;11.43;;;6.45;;
12635;SDS011;6383;50.830;7.210;2022-10-22T06:16:24;14.68;;;6.90;;
12635;SDS011;6383;50.830;7.210;2022-10-22T06:18:55;10.35;;;6.93;;
12635;SDS011;6383;50.830;7.210;2022-10-22T06:21:26;12.73;;;6.25;;
12635;SDS011;6383;50.830;7.210;2022-10-22T06:23:55;11.50;;;6.18;;
12635;SDS011;6383;50.830;7.210;2022-10-22T06:26:24;12.82;;;6.40;;
12635;SDS011;6383;50.830;7.210;2022-10-22T06:28:54;11.80;;;6.60;;
12635;SDS011;6383;50.830;7.210;2022-10-22T06:31:24;18.17;;;6.43;;
12635;SDS011;6383;50.830;7.210;2022-10-22T06:33:55;12.20;;;9.48;;
12635;SDS011;6383;50.830;7.210;2022-10-22T06:36:24;17.08;;;12.95;;
12635;SDS011;6383;50.830;7.210;2022-10-22T06:38:53;18.77;;;12.48;;
12635;SDS011;6383;50.830;7.210;2022-10-22T06:41:23;20.00;;;12.35;;
12635;SDS011;6383;50.830;7.210;2022-10-22T06:43:53;18.80;;;11.68;;
12635;SDS011;6383;50.830;7.210;2022-10-22T06:46:25;17.73;;;12.65;;
12635;SDS011;6383;50.830;7.210;2022-10-22T06:48:55;21.00;;;13.15;;
12635;SDS011;6383;50.830;7.210;2022-10-22T06:51:26;19.38;;;11.07;;
12635;SDS011;6383;50.830;7.210;2022-10-22T06:53:55;19.85;;;11.00;;
12635;SDS011;6383;50.830;7.210;2022-10-22T06:56:24;17.35;;;10.85;;
12635;SDS011;6383;50.830;7.210;2022-10-22T06:58:55;15.65;;;10.93;;
12635;SDS011;6383;50.830;7.210;2022-10-22T07:01:27;29.08;;;11.27;;
12635;SDS011;6383;50.830;7.210;2022-10-22T07:03:57;21.63;;;11.68;;
12635;SDS011;6383;50.830;7.210;2022-10-22T07:06:27;22.75;;;12.10;;
12635;SDS011;6383;50.830;7.210;2022-10-22T07:08:57;14.25;;;11.07;;
12635;SDS011;6383;50.830;7.210;2022-10-22T07:11:27;19.35;;;13.32;;
12635;SDS011;6383;50.830;7.210;2022-10-22T07:13:58;23.50;;;12.30;;
12635;SDS011;6383;50.830;7.210;2022-10-22T07:16:27;22.67;;;11.07;;
12635;SDS011;6383;50.830;7.210;2022-10-22T07:18:56;22.33;;;11.55;;
12635;SDS011;6383;50.830;7.210;2022-10-22T07:21:25;21.13;;;11.07;;
12635;SDS011;6383;50.830;7.210;2022-10-22T07:23:54;21.15;;;12.02;;
12635;SDS011;6383;50.830;7.210;2022-10-22T07:26:22;19.23;;;12.90;;
